createdAt,value
2018-02-24T00:00:13.263Z,60.20
2018-02-24T00:02:40.827Z,60.35
2018-02-24T00:05:08.592Z,60.42
2018-02-24T00:07:36.111Z,60.59
2018-02-24T00:10:03.682Z,60.78
2018-02-24T00:12:31.197Z,60.95
2018-02-24T00:14:59.044Z,61.06
2018-02-24T00:17:26.561Z,61.13
2018-02-24T00:19:54.101Z,61.18
2018-02-24T00:22:21.656Z,61.41
2018-02-24T00:24:49.181Z,61.75
2018-02-24T00:27:16.721Z,61.72
2018-02-24T00:29:44.262Z,62.07
2018-02-24T00:32:11.795Z,62.23
2018-02-24T00:34:39.623Z,62.01
2018-02-24T00:37:07.388Z,62.27
2018-02-24T00:39:34.896Z,62.36
2018-02-24T00:42:02.456Z,62.34
2018-02-24T00:44:29.983Z,62.57
2018-02-24T00:46:57.571Z,62.77
2018-02-24T00:49:25.160Z,62.63
2018-02-24T00:51:52.957Z,62.93
2018-02-24T00:54:20.826Z,63.00
2018-02-24T00:56:48.403Z,63.00
2018-02-24T00:59:15.950Z,63.08
2018-02-24T01:01:43.507Z,63.25
2018-02-24T01:04:11.136Z,63.17
2018-02-24T01:06:38.695Z,63.13
2018-02-24T01:09:06.235Z,63.08
2018-02-24T01:11:34.053Z,63.10
2018-02-24T01:14:01.927Z,62.95
2018-02-24T01:16:29.435Z,62.91
2018-02-24T01:18:57.057Z,62.90
2018-02-24T01:21:24.620Z,62.87
2018-02-24T01:23:52.487Z,62.89
2018-02-24T01:26:20.048Z,62.77
2018-02-24T01:28:47.913Z,62.84
2018-02-24T01:31:15.484Z,62.94
2018-02-24T01:33:43.027Z,63.04
2018-02-24T01:36:10.556Z,63.19
2018-02-24T01:38:38.457Z,63.42
2018-02-24T01:41:05.999Z,63.43
2018-02-24T01:43:33.535Z,63.33
2018-02-24T01:46:01.094Z,63.20
2018-02-24T01:48:28.642Z,63.20
2018-02-24T01:50:56.202Z,63.18
2018-02-24T01:53:23.719Z,63.24
2018-02-24T01:55:51.254Z,63.48
2018-02-24T01:58:18.810Z,63.62
2018-02-24T02:00:46.359Z,63.46
2018-02-24T02:03:13.887Z,63.42
2018-02-24T02:05:41.425Z,63.27
2018-02-24T02:08:08.990Z,63.29
2018-02-24T02:10:36.549Z,63.21
2018-02-24T02:13:04.100Z,62.98
2018-02-24T02:15:31.869Z,63.22
2018-02-24T02:17:59.455Z,63.09
2018-02-24T02:20:26.999Z,63.10
2018-02-24T02:22:54.534Z,63.25
2018-02-24T02:25:22.081Z,63.31
2018-02-24T02:27:49.982Z,63.52
2018-02-24T02:30:17.556Z,63.81
2018-02-24T02:32:45.134Z,63.69
2018-02-24T02:35:12.712Z,63.89
2018-02-24T02:37:40.235Z,63.73
2018-02-24T02:40:07.770Z,63.81
2018-02-24T02:42:35.322Z,63.70
2018-02-24T02:47:30.021Z,62.85
2018-02-24T02:49:57.546Z,62.71
2018-02-24T02:52:25.072Z,62.77
2018-02-24T02:54:52.696Z,62.66
2018-02-24T02:57:20.217Z,62.96
2018-02-24T02:59:47.807Z,62.93
2018-02-24T03:02:15.428Z,62.68
2018-02-24T03:04:42.992Z,62.67
2018-02-24T03:07:10.538Z,62.78
2018-02-24T03:09:38.062Z,62.80
2018-02-24T03:12:05.639Z,62.74
2018-02-24T03:14:33.231Z,62.71
2018-02-24T03:17:01.093Z,62.66
2018-02-24T03:19:28.674Z,62.56
2018-02-24T03:21:56.196Z,62.49
2018-02-24T03:24:23.733Z,62.58
2018-02-24T03:26:51.287Z,62.58
2018-02-24T03:29:18.852Z,62.62
2018-02-24T03:31:46.406Z,62.38
2018-02-24T03:34:13.944Z,62.32
2018-02-24T03:36:41.486Z,62.45
2018-02-24T03:39:09.095Z,62.63
2018-02-24T03:41:36.902Z,63.24
2018-02-24T03:44:04.449Z,63.83
2018-02-24T03:46:32.007Z,64.80
2018-02-24T03:48:59.540Z,65.26
2018-02-24T03:51:27.129Z,64.98
2018-02-24T03:53:54.706Z,65.65
2018-02-24T03:56:22.240Z,66.00
2018-02-24T03:58:49.790Z,66.17
2018-02-24T04:01:17.360Z,66.48
2018-02-24T04:03:44.888Z,66.67
2018-02-24T04:06:12.483Z,67.40
2018-02-24T04:08:40.024Z,67.39
2018-02-24T04:11:07.571Z,67.07
2018-02-24T04:13:35.166Z,67.35
2018-02-24T04:16:02.716Z,67.57
2018-02-24T04:18:30.264Z,67.58
2018-02-24T04:20:57.844Z,67.68
2018-02-24T04:23:25.370Z,67.69
2018-02-24T04:25:52.908Z,68.22
2018-02-24T04:28:20.459Z,68.12
2018-02-24T04:30:47.999Z,68.40
2018-02-24T04:33:15.984Z,68.46
2018-02-24T04:35:43.851Z,68.71
2018-02-24T04:38:11.411Z,69.43
2018-02-24T04:40:38.975Z,69.21
2018-02-24T04:43:06.528Z,69.45
2018-02-24T04:45:34.083Z,69.46
2018-02-24T04:48:01.632Z,69.93
2018-02-24T04:50:29.418Z,70.00
2018-02-24T04:52:57.240Z,70.18
2018-02-24T04:55:24.810Z,70.45
2018-02-24T04:57:52.347Z,70.78
2018-02-24T05:00:19.911Z,71.43
2018-02-24T05:02:47.438Z,71.66
2018-02-24T05:05:15.298Z,72.34
2018-02-24T05:07:42.845Z,73.00
2018-02-24T05:10:10.403Z,73.90
2018-02-24T05:12:38.026Z,74.34
2018-02-24T05:15:05.584Z,74.57
2018-02-24T05:17:33.102Z,74.60
2018-02-24T05:20:00.663Z,74.65
2018-02-24T05:22:28.219Z,74.83
2018-02-24T05:24:55.776Z,74.62
2018-02-24T05:27:23.335Z,74.68
2018-02-24T05:29:51.107Z,74.63
2018-02-24T05:32:18.975Z,74.93
2018-02-24T05:34:46.526Z,74.97
2018-02-24T05:37:14.059Z,74.65
2018-02-24T05:39:41.725Z,74.73
2018-02-24T05:42:09.286Z,74.95
2018-02-24T05:44:36.810Z,74.99
2018-02-24T05:47:04.351Z,74.69
2018-02-24T05:49:31.920Z,74.80
2018-02-24T05:51:59.878Z,74.39
2018-02-24T05:54:27.411Z,74.45
2018-02-24T05:56:54.962Z,74.52
2018-02-24T05:59:22.486Z,74.10
2018-02-24T06:01:50.323Z,74.20
2018-02-24T06:04:17.887Z,74.26
2018-02-24T06:06:45.427Z,74.24
2018-02-24T06:09:13.411Z,74.24
2018-02-24T06:11:40.950Z,73.72
2018-02-24T06:14:08.469Z,73.53
2018-02-24T06:16:36.117Z,73.29
2018-02-24T06:19:03.963Z,73.26
2018-02-24T06:21:31.930Z,72.94
2018-02-24T06:23:59.501Z,73.04
2018-02-24T06:26:27.048Z,72.96
2018-02-24T06:28:54.923Z,73.05
2018-02-24T06:31:22.493Z,72.73
2018-02-24T06:33:50.083Z,72.43
2018-02-24T06:36:17.610Z,71.98
2018-02-24T06:38:45.159Z,71.87
2018-02-24T06:41:12.690Z,72.00
2018-02-24T06:43:40.243Z,72.13
2018-02-24T06:46:08.055Z,72.28
2018-02-24T06:48:35.633Z,71.80
2018-02-24T06:51:03.193Z,70.85
2018-02-24T06:53:30.748Z,69.27
2018-02-24T06:55:58.280Z,68.84
2018-02-24T06:58:25.856Z,67.56
2018-02-24T07:00:53.728Z,67.04
2018-02-24T07:03:21.295Z,66.18
2018-02-24T07:05:48.837Z,65.37
2018-02-24T07:08:16.387Z,62.63
2018-02-24T07:10:43.903Z,62.35
2018-02-24T07:13:11.489Z,61.99
2018-02-24T07:15:39.091Z,61.41
2018-02-24T07:18:06.661Z,60.36
2018-02-24T07:20:34.424Z,59.64
2018-02-24T07:23:01.962Z,58.95
2018-02-24T07:25:29.494Z,58.64
2018-02-24T07:27:57.035Z,58.57
2018-02-24T07:30:24.594Z,58.68
2018-02-24T07:32:52.419Z,58.34
2018-02-24T07:35:19.959Z,58.35
2018-02-24T07:37:47.480Z,58.12
2018-02-24T07:40:15.059Z,57.98
2018-02-24T07:42:42.597Z,58.16
2018-02-24T07:45:10.133Z,57.93
2018-02-24T07:47:37.689Z,56.99
2018-02-24T07:50:05.224Z,56.40
2018-02-24T07:52:33.112Z,55.93
2018-02-24T07:55:00.979Z,55.63
2018-02-24T07:57:28.582Z,55.10
2018-02-24T07:59:56.136Z,53.86
2018-02-24T08:02:23.964Z,53.84
2018-02-24T08:04:51.504Z,53.80
2018-02-24T08:07:19.035Z,52.55
2018-02-24T08:09:46.580Z,50.41
2018-02-24T08:12:14.114Z,49.57
2018-02-24T08:14:41.641Z,49.64
2018-02-24T08:17:09.267Z,49.74
2018-02-24T08:19:36.916Z,49.74
2018-02-24T08:22:04.467Z,49.30
2018-02-24T08:24:32.267Z,49.22
2018-02-24T08:26:59.796Z,48.92
2018-02-24T08:29:27.350Z,47.52
2018-02-24T08:31:54.929Z,47.17
2018-02-24T08:34:23.362Z,46.57
2018-02-24T08:36:50.930Z,46.97
2018-02-24T08:39:18.478Z,47.08
2018-02-24T08:41:45.988Z,46.86
2018-02-24T08:44:13.611Z,47.33
2018-02-24T08:46:43.068Z,47.32
2018-02-24T08:49:12.624Z,46.87
2018-02-24T08:51:40.180Z,46.91
2018-02-24T08:54:07.767Z,46.74
2018-02-24T08:56:35.303Z,46.40
2018-02-24T08:59:03.164Z,46.42
2018-02-24T09:01:31.165Z,45.99
2018-02-24T09:03:58.793Z,45.69
2018-02-24T09:06:26.349Z,45.22
2018-02-24T09:08:54.223Z,44.95
2018-02-24T09:11:21.783Z,44.93
2018-02-24T09:13:49.354Z,45.03
2018-02-24T09:16:16.944Z,44.93
2018-02-24T09:18:44.510Z,45.37
2018-02-24T09:21:12.052Z,45.12
2018-02-24T09:23:39.619Z,44.96
2018-02-24T09:26:07.493Z,44.58
2018-02-24T09:28:35.013Z,44.12
2018-02-24T09:31:02.563Z,44.00
2018-02-24T09:33:30.162Z,43.50
2018-02-24T09:35:57.748Z,43.05
2018-02-24T09:38:25.696Z,42.59
2018-02-24T09:40:53.219Z,41.80
2018-02-24T09:43:20.750Z,41.98
2018-02-24T09:45:48.304Z,41.45
2018-02-24T09:48:15.882Z,41.44
2018-02-24T09:50:43.485Z,41.12
2018-02-24T09:53:11.068Z,42.45
2018-02-24T09:55:38.599Z,42.49
2018-02-24T09:58:06.148Z,42.35
2018-02-24T10:00:33.751Z,41.78
2018-02-24T10:03:01.355Z,42.34
2018-02-24T10:05:28.915Z,42.71
2018-02-24T10:07:56.445Z,43.29
2018-02-24T10:10:24.064Z,43.49
2018-02-24T10:12:51.592Z,43.50
2018-02-24T10:15:19.415Z,43.57
2018-02-24T10:17:47.280Z,43.56
2018-02-24T10:20:15.151Z,43.38
2018-02-24T10:22:42.861Z,43.40
2018-02-24T10:25:10.419Z,42.84
2018-02-24T10:27:38.088Z,42.30
2018-02-24T10:30:05.658Z,43.19
2018-02-24T10:32:33.458Z,41.64
2018-02-24T10:35:00.983Z,39.61
2018-02-24T10:37:28.795Z,39.27
2018-02-24T10:39:56.404Z,39.28
2018-02-24T10:42:24.026Z,39.13
2018-02-24T10:44:51.545Z,39.31
2018-02-24T10:47:19.079Z,38.21
2018-02-24T10:49:46.661Z,37.81
2018-02-24T10:52:14.178Z,37.35
2018-02-24T10:54:42.053Z,36.41
2018-02-24T10:57:09.595Z,37.06
2018-02-24T10:59:37.119Z,35.79
2018-02-24T11:02:04.901Z,34.78
2018-02-24T11:04:32.776Z,34.06
2018-02-24T11:07:00.551Z,33.80
2018-02-24T11:09:28.137Z,33.78
2018-02-24T11:11:55.681Z,33.96
2018-02-24T11:14:23.568Z,34.37
2018-02-24T11:16:51.129Z,34.10
2018-02-24T11:19:18.719Z,35.12
2018-02-24T11:21:46.331Z,34.36
2018-02-24T11:24:13.893Z,33.95
2018-02-24T11:26:41.438Z,34.96
2018-02-24T11:29:09.053Z,35.22
2018-02-24T11:31:36.583Z,34.09
2018-02-24T11:34:04.125Z,33.89
2018-02-24T11:36:31.990Z,34.64
2018-02-24T11:38:59.857Z,33.29
2018-02-24T11:41:27.461Z,31.27
2018-02-24T11:43:55.099Z,31.35
2018-02-24T11:46:22.655Z,33.00
2018-02-24T11:48:50.353Z,32.53
2018-02-24T11:51:17.935Z,32.87
2018-02-24T11:53:45.487Z,33.78
2018-02-24T11:56:13.060Z,33.86
2018-02-24T11:58:40.667Z,34.05
2018-02-24T12:01:08.228Z,34.45
2018-02-24T12:03:35.762Z,33.67
2018-02-24T12:06:03.305Z,33.36
2018-02-24T12:08:31.192Z,33.79
2018-02-24T12:10:59.067Z,34.02
2018-02-24T12:13:26.939Z,34.19
2018-02-24T12:15:54.455Z,34.49
2018-02-24T12:18:22.007Z,34.24
2018-02-24T12:20:49.638Z,33.35
2018-02-24T12:23:17.151Z,33.41
2018-02-24T12:25:44.707Z,34.50
2018-02-24T12:28:12.499Z,34.49
2018-02-24T12:30:40.025Z,33.86
2018-02-24T12:33:07.562Z,34.85
2018-02-24T12:35:35.090Z,34.51
2018-02-24T12:38:02.633Z,34.14
2018-02-24T12:40:30.848Z,34.18
2018-02-24T12:42:58.422Z,34.38
2018-02-24T12:45:26.252Z,34.71
2018-02-24T12:47:54.119Z,34.48
2018-02-24T12:50:21.679Z,33.36
2018-02-24T12:52:49.224Z,33.43
2018-02-24T12:55:16.757Z,32.80
2018-02-24T12:57:44.447Z,32.74
2018-02-24T13:00:12.023Z,33.62
2018-02-24T13:02:39.636Z,34.08
2018-02-24T13:05:07.196Z,32.98
2018-02-24T13:07:34.718Z,33.25
2018-02-24T13:10:02.258Z,33.97
2018-02-24T13:12:29.820Z,34.36
2018-02-24T13:14:57.336Z,34.74
2018-02-24T13:17:24.882Z,35.04
2018-02-24T13:19:52.572Z,35.57
2018-02-24T13:22:20.142Z,35.97
2018-02-24T13:24:48.035Z,35.54
2018-02-24T13:27:15.551Z,35.07
2018-02-24T13:29:43.154Z,35.44
2018-02-24T13:32:10.727Z,35.71
2018-02-24T13:34:38.340Z,35.51
2018-02-24T13:37:06.253Z,35.43
2018-02-24T13:39:33.848Z,35.44
2018-02-24T13:42:01.455Z,36.32
2018-02-24T13:44:29.043Z,37.05
2018-02-24T13:46:56.598Z,37.58
2018-02-24T13:49:24.139Z,38.05
2018-02-24T13:51:52.031Z,37.87
2018-02-24T13:54:19.583Z,38.02
2018-02-24T13:56:47.502Z,38.19
2018-02-24T13:59:15.077Z,37.81
2018-02-24T14:01:42.849Z,38.03
2018-02-24T14:04:10.399Z,37.69
2018-02-24T14:06:37.981Z,38.10
2018-02-24T14:09:05.530Z,38.27
2018-02-24T14:11:33.162Z,38.93
2018-02-24T14:14:00.740Z,38.89
2018-02-24T14:16:28.262Z,38.62
2018-02-24T14:18:55.786Z,38.34
2018-02-24T14:21:23.378Z,37.72
2018-02-24T14:23:50.943Z,36.93
2018-02-24T14:26:18.476Z,37.00
2018-02-24T14:28:46.159Z,37.36
2018-02-24T14:31:13.716Z,37.38
2018-02-24T14:33:41.306Z,37.23
2018-02-24T14:36:08.876Z,37.48
2018-02-24T14:38:36.548Z,36.75
2018-02-24T14:41:04.127Z,34.49
2018-02-24T14:43:31.668Z,33.27
2018-02-24T14:45:59.337Z,34.60
2018-02-24T14:48:26.911Z,32.76
2018-02-24T14:50:54.478Z,33.02
2018-02-24T14:53:22.075Z,33.50
2018-02-24T14:55:49.608Z,34.07
2018-02-24T14:58:17.164Z,33.90
2018-02-24T15:00:45.333Z,35.68
2018-02-24T15:03:13.032Z,37.44
2018-02-24T15:05:40.887Z,38.09
2018-02-24T15:08:08.449Z,38.08
2018-02-24T15:10:36.337Z,37.85
2018-02-24T15:13:03.892Z,37.64
2018-02-24T15:15:31.620Z,37.63
2018-02-24T15:17:59.558Z,37.48
2018-02-24T15:20:27.503Z,38.02
2018-02-24T15:22:55.019Z,38.24
2018-02-24T15:25:22.633Z,38.46
2018-02-24T15:27:50.214Z,38.87
2018-02-24T15:30:17.775Z,38.41
2018-02-24T15:32:45.443Z,38.25
2018-02-24T15:35:12.978Z,38.23
2018-02-24T15:37:40.628Z,38.31
2018-02-24T15:40:08.398Z,38.54
2018-02-24T15:42:36.242Z,38.81
2018-02-24T15:45:03.843Z,39.14
2018-02-24T15:47:31.771Z,39.15
2018-02-24T15:49:59.378Z,39.80
2018-02-24T15:52:27.074Z,39.97
2018-02-24T15:54:55.515Z,39.50
2018-02-24T15:57:23.159Z,39.26
2018-02-24T15:59:51.124Z,39.21
2018-02-24T16:02:18.779Z,39.10
2018-02-24T16:04:46.395Z,39.40
2018-02-24T16:07:13.944Z,39.58
2018-02-24T16:09:43.009Z,39.85
2018-02-24T16:12:11.065Z,40.04
2018-02-24T16:14:38.936Z,39.89
2018-02-24T16:17:06.493Z,40.11
2018-02-24T16:19:34.007Z,40.22
2018-02-24T16:22:01.653Z,40.43
2018-02-24T16:24:29.220Z,40.69
2018-02-24T16:26:56.762Z,41.24
2018-02-24T16:29:24.318Z,41.34
2018-02-24T16:31:51.845Z,41.44
2018-02-24T16:34:19.480Z,41.77
2018-02-24T16:36:47.116Z,42.01
2018-02-24T16:39:14.708Z,42.16
2018-02-24T16:41:42.383Z,42.23
2018-02-24T16:44:09.945Z,42.39
2018-02-24T16:46:37.528Z,41.76
2018-02-24T16:49:05.086Z,41.49
2018-02-24T16:51:32.859Z,41.00
2018-02-24T16:54:00.422Z,40.88
2018-02-24T16:56:28.286Z,40.44
2018-02-24T16:58:55.881Z,40.50
2018-02-24T17:01:23.724Z,40.47
2018-02-24T17:03:51.264Z,40.62
2018-02-24T17:06:19.012Z,40.55
2018-02-24T17:08:46.816Z,40.79
2018-02-24T17:11:14.432Z,40.74
2018-02-24T17:13:42.004Z,40.88
2018-02-24T17:16:09.758Z,40.96
2018-02-24T17:18:37.282Z,41.05
2018-02-24T17:21:05.153Z,41.25
2018-02-24T17:23:32.692Z,41.47
2018-02-24T17:26:00.563Z,41.67
2018-02-24T17:28:28.190Z,41.86
2018-02-24T17:30:55.721Z,41.86
2018-02-24T17:33:23.754Z,42.02
2018-02-24T17:35:51.363Z,42.17
2018-02-24T17:38:18.935Z,42.50
2018-02-24T17:40:46.489Z,42.68
2018-02-24T17:43:14.240Z,42.80
2018-02-24T17:45:42.036Z,42.87
2018-02-24T17:48:09.953Z,42.99
2018-02-24T17:50:37.511Z,43.12
2018-02-24T17:53:05.299Z,43.29
2018-02-24T17:55:32.998Z,43.48
2018-02-24T17:58:00.560Z,43.56
2018-02-24T18:00:28.140Z,43.65
2018-02-24T18:02:55.772Z,43.85
2018-02-24T18:05:23.404Z,44.10
2018-02-24T18:07:51.025Z,43.92
2018-02-24T18:10:18.608Z,44.06
2018-02-24T18:12:46.220Z,43.94
2018-02-24T18:15:13.853Z,43.94
2018-02-24T18:17:41.466Z,44.02
2018-02-24T18:20:09.088Z,44.14
2018-02-24T18:22:36.669Z,44.42
2018-02-24T18:25:04.308Z,44.29
2018-02-24T18:27:31.867Z,44.47
2018-02-24T18:29:59.423Z,44.63
2018-02-24T18:32:27.259Z,44.59
2018-02-24T18:34:54.861Z,44.52
2018-02-24T18:37:22.712Z,44.31
2018-02-24T18:39:50.301Z,44.38
2018-02-24T18:42:17.871Z,44.65
2018-02-24T18:44:45.417Z,44.71
2018-02-24T18:47:13.082Z,44.61
2018-02-24T18:49:40.638Z,44.79
2018-02-24T18:52:08.397Z,44.87
2018-02-24T18:54:36.061Z,44.88
2018-02-24T18:57:03.653Z,45.01
2018-02-24T18:59:31.215Z,44.92
2018-02-24T19:01:58.784Z,45.00
2018-02-24T19:04:26.345Z,45.24
2018-02-24T19:06:54.068Z,45.54
2018-02-24T19:09:22.110Z,45.03
2018-02-24T19:11:49.727Z,45.02
2018-02-24T19:14:17.281Z,45.18
2018-02-24T19:16:45.223Z,45.22
2018-02-24T19:19:13.080Z,45.43
2018-02-24T19:21:40.704Z,45.38
2018-02-24T19:24:08.348Z,45.35
2018-02-24T19:26:35.898Z,45.37
2018-02-24T19:29:03.538Z,45.30
2018-02-24T19:31:31.713Z,45.34
2018-02-24T19:33:59.450Z,45.36
2018-02-24T19:36:27.274Z,45.12
2018-02-24T19:38:56.486Z,44.95
2018-02-24T19:41:24.114Z,44.92
2018-02-24T19:43:51.682Z,45.33
2018-02-24T19:46:19.232Z,44.91
2018-02-24T19:48:46.779Z,45.07
2018-02-24T19:51:14.344Z,45.10
2018-02-24T19:53:41.887Z,44.92
2018-02-24T19:56:09.596Z,45.04
2018-02-24T19:58:37.166Z,45.30
2018-02-24T20:01:06.703Z,45.51
2018-02-24T20:03:36.397Z,45.78
2018-02-24T20:06:04.831Z,45.92
2018-02-24T20:08:32.629Z,46.20
2018-02-24T20:11:01.851Z,46.22
2018-02-24T20:13:29.660Z,46.35
2018-02-24T20:15:57.325Z,46.51
2018-02-24T20:18:25.217Z,46.47
2018-02-24T20:20:52.835Z,46.69
2018-02-24T20:23:20.889Z,46.78
2018-02-24T20:25:48.521Z,46.81
2018-02-24T20:28:16.112Z,46.69
2018-02-24T20:30:43.695Z,46.59
2018-02-24T20:33:11.492Z,46.27
2018-02-24T20:35:39.061Z,46.67
2018-02-24T20:38:06.743Z,47.06
2018-02-24T20:40:34.358Z,47.45
2018-02-24T20:43:01.906Z,47.34
2018-02-24T20:45:29.490Z,47.48
2018-02-24T20:47:57.340Z,47.51
2018-02-24T20:50:24.900Z,47.59
2018-02-24T20:52:52.746Z,47.70
2018-02-24T20:55:20.489Z,47.79
2018-02-24T20:57:48.109Z,47.86
2018-02-24T21:00:15.942Z,48.08
2018-02-24T21:02:43.485Z,48.38
2018-02-24T21:05:11.474Z,48.49
2018-02-24T21:07:39.213Z,48.44
2018-02-24T21:10:06.784Z,48.47
2018-02-24T21:12:34.352Z,48.49
2018-02-24T21:15:01.899Z,48.56
2018-02-24T21:17:30.219Z,48.20
2018-02-24T21:19:58.087Z,47.97
2018-02-24T21:22:25.845Z,47.88
2018-02-24T21:24:53.832Z,47.47
2018-02-24T21:27:21.427Z,47.45
2018-02-24T21:29:49.243Z,47.10
2018-02-24T21:32:16.854Z,47.08
2018-02-24T21:34:44.457Z,47.03
2018-02-24T21:37:12.140Z,46.74
2018-02-24T21:39:39.681Z,46.91
2018-02-24T21:42:07.248Z,47.11
2018-02-24T21:44:35.503Z,46.92
2018-02-24T21:47:03.224Z,46.89
2018-02-24T21:49:30.937Z,46.73
2018-02-24T21:51:59.005Z,46.94
2018-02-24T21:54:28.977Z,47.15
2018-02-24T21:56:56.735Z,46.59
2018-02-24T21:59:24.337Z,46.48
2018-02-24T22:01:51.984Z,46.25
2018-02-24T22:04:19.600Z,46.16
2018-02-24T22:06:47.150Z,46.18
2018-02-24T22:09:15.226Z,46.26
2018-02-24T22:11:42.792Z,46.26
2018-02-24T22:14:10.648Z,46.25
2018-02-24T22:16:38.704Z,46.50
2018-02-24T22:19:06.426Z,46.48
2018-02-24T22:21:34.419Z,46.68
2018-02-24T22:24:02.695Z,46.67
2018-02-24T22:26:30.274Z,46.37
2018-02-24T22:28:58.071Z,46.58
2018-02-24T22:31:25.683Z,46.21
2018-02-24T22:33:53.318Z,46.12
2018-02-24T22:36:20.873Z,46.43
2018-02-24T22:38:48.643Z,46.53
2018-02-24T22:41:16.375Z,46.69
2018-02-24T22:43:44.045Z,46.78
2018-02-24T22:46:11.627Z,46.87
2018-02-24T22:48:44.875Z,47.02
2018-02-24T22:51:12.423Z,47.15
2018-02-24T22:53:39.969Z,46.94
2018-02-24T22:56:07.586Z,47.27
2018-02-24T22:58:35.157Z,47.25
2018-02-24T23:01:02.707Z,47.16
2018-02-24T23:03:30.288Z,47.34
2018-02-24T23:05:57.841Z,47.60
2018-02-24T23:08:25.535Z,47.59
2018-02-24T23:10:53.346Z,47.66
2018-02-24T23:13:21.132Z,47.68
2018-02-24T23:15:48.715Z,47.82
2018-02-24T23:18:16.308Z,47.82
2018-02-24T23:20:43.886Z,47.96
2018-02-24T23:23:11.459Z,48.21
2018-02-24T23:25:39.206Z,48.21
2018-02-24T23:28:06.845Z,48.24
2018-02-24T23:30:34.418Z,48.33
2018-02-24T23:33:02.016Z,48.70
2018-02-24T23:35:29.565Z,48.66
2018-02-24T23:37:57.118Z,48.12
2018-02-24T23:40:24.710Z,48.38
2018-02-24T23:42:52.559Z,48.74
2018-02-24T23:45:20.108Z,48.78
2018-02-24T23:47:47.678Z,48.94
2018-02-24T23:50:15.224Z,48.94
2018-02-24T23:52:42.781Z,49.42
2018-02-24T23:55:10.403Z,49.32
2018-02-24T23:57:37.962Z,49.09
